Sibel J — 5IM270 — position and weather

sailwx.info

Track history (hours):
 
Tides and Currents Weather Stations Pressure Air Temp Water Temp Dewpoint Dewpoint Depression Visibility Wind Speed Wind Dir Waves Ship Positions

Sibel J

Last reported at 2015-Apr-01 01:07 UTC. Time now 2015-Apr-01 03:09 UTC.
Position N 40°47' E 029°36'.

Length 100 m; draft 4.6 m.

Type: Cargo ship. MMSI: 677017000.

Date/timePositionNaut miles runAvg speedWind from/ knotsBaromVisibWave heightAir tempDewpointWater temp
2015-Apr-01 01:07N 40°47' E 029°36'0 0.0
2015-Apr-01 00:31N 40°47' E 029°36'0 0.0
2015-Mar-31 22:19N 40°47' E 029°36'0 0.0
2015-Mar-31 21:31N 40°47' E 029°36'0 0.0
2015-Mar-31 20:19N 40°47' E 029°36'0 0.0
2015-Mar-31 19:19N 40°47' E 029°36'0 0.0
2015-Mar-31 18:19N 40°47' E 029°36'0 0.0
2015-Mar-31 17:31N 40°47' E 029°36'1 0.0
2015-Mar-30 17:23N 40°46' E 029°35'5 5.5
2015-Mar-30 16:33N 40°46' E 029°29'0 0.0
2015-Mar-30 15:33N 40°46' E 029°29'0 0.0
2015-Mar-30 14:32N 40°46' E 029°29'0 0.0
2015-Mar-30 13:32N 40°46' E 029°29'0 0.0
2015-Mar-30 12:31N 40°46' E 029°29'0 0.0
2015-Mar-30 11:05N 40°46' E 029°29'0 0.0
2015-Mar-30 10:31N 40°46' E 029°29'0 0.0
2015-Mar-30 09:32N 40°46' E 029°29'0 0.0
2015-Mar-30 08:33N 40°46' E 029°29'0 0.0
2015-Mar-30 06:19N 40°46' E 029°29'0 0.1
2015-Mar-30 05:28N 40°46' E 029°29'5 5.8
2015-Mar-30 04:32N 40°44' E 029°22'6 6.1
2015-Mar-30 03:33N 40°44' E 029°14'6 5.9
2015-Mar-30 02:33N 40°46' E 029°07'6 5.8
2015-Mar-30 01:33N 40°49' E 029°00'6 6.5
2015-Mar-30 00:33N 40°55' E 028°57'  
2015-Mar-27 07:06N 46°29' E 030°45'0 0.0
2015-Mar-27 05:18N 46°29' E 030°45'0 0.0
2015-Mar-26 19:33N 46°29' E 030°45'0 0.0
2015-Mar-26 18:24N 46°29' E 030°45'0 0.0
2015-Mar-26 17:27N 46°29' E 030°45'0 0.0
2015-Mar-26 16:33N 46°29' E 030°45'  
Track history (hours):
 
Tides and Currents Weather Stations Pressure Air Temp Water Temp Dewpoint Dewpoint Depression Visibility Wind Speed Wind Dir Waves Ship Positions

Sibel J

Last reported at 2015-Apr-01 01:07 UTC. Time now 2015-Apr-01 03:09 UTC.
Position N 40°47' E 029°36'.

Length 100 m; draft 4.6 m.

Type: Cargo ship. MMSI: 677017000.

Date/timePositionNaut miles runAvg speedWind from/ knotsBaromVisibWave heightAir tempDewpointWater temp
2015-Apr-01 01:07N 40°47' E 029°36'0 0.0
2015-Apr-01 00:31N 40°47' E 029°36'0 0.0
2015-Mar-31 22:19N 40°47' E 029°36'0 0.0
2015-Mar-31 21:31N 40°47' E 029°36'0 0.0
2015-Mar-31 20:19N 40°47' E 029°36'0 0.0
2015-Mar-31 19:19N 40°47' E 029°36'0 0.0
2015-Mar-31 18:19N 40°47' E 029°36'0 0.0
2015-Mar-31 17:31N 40°47' E 029°36'1 0.0
2015-Mar-30 17:23N 40°46' E 029°35'5 5.5
2015-Mar-30 16:33N 40°46' E 029°29'0 0.0
2015-Mar-30 15:33N 40°46' E 029°29'0 0.0
2015-Mar-30 14:32N 40°46' E 029°29'0 0.0
2015-Mar-30 13:32N 40°46' E 029°29'0 0.0
2015-Mar-30 12:31N 40°46' E 029°29'0 0.0
2015-Mar-30 11:05N 40°46' E 029°29'0 0.0
2015-Mar-30 10:31N 40°46' E 029°29'0 0.0
2015-Mar-30 09:32N 40°46' E 029°29'0 0.0
2015-Mar-30 08:33N 40°46' E 029°29'0 0.0
2015-Mar-30 06:19N 40°46' E 029°29'0 0.1
2015-Mar-30 05:28N 40°46' E 029°29'5 5.8
2015-Mar-30 04:32N 40°44' E 029°22'6 6.1
2015-Mar-30 03:33N 40°44' E 029°14'6 5.9
2015-Mar-30 02:33N 40°46' E 029°07'6 5.8
2015-Mar-30 01:33N 40°49' E 029°00'6 6.5
2015-Mar-30 00:33N 40°55' E 028°57'  
2015-Mar-27 07:06N 46°29' E 030°45'0 0.0
2015-Mar-27 05:18N 46°29' E 030°45'0 0.0
2015-Mar-26 19:33N 46°29' E 030°45'0 0.0
2015-Mar-26 18:24N 46°29' E 030°45'0 0.0
2015-Mar-26 17:27N 46°29' E 030°45'0 0.0
2015-Mar-26 16:33N 46°29' E 030°45'  

Dump ship's entire track history